createdAt,value
2022-08-24T00:00:21.734Z,15.30
2022-08-24T00:02:50.038Z,15.20
2022-08-24T00:05:21.174Z,15.20
2022-08-24T00:07:49.752Z,15.20
2022-08-24T00:10:17.402Z,15.20
2022-08-24T00:12:44.621Z,15.10
2022-08-24T00:15:12.311Z,15.10
2022-08-24T00:17:39.832Z,15.10
2022-08-24T00:20:07.796Z,15.10
2022-08-24T00:22:34.971Z,15.10
2022-08-24T00:25:02.252Z,15.00
2022-08-24T00:27:29.510Z,15.00
2022-08-24T00:29:57.239Z,15.00
2022-08-24T00:32:24.463Z,15.00
2022-08-24T00:34:58.735Z,15.00
2022-08-24T00:37:28.427Z,14.90
2022-08-24T00:39:56.179Z,14.90
2022-08-24T00:42:24.414Z,14.90
2022-08-24T00:44:52.049Z,14.90
2022-08-24T00:47:25.392Z,14.90
2022-08-24T00:50:07.703Z,14.90
2022-08-24T00:52:48.395Z,14.80
2022-08-24T00:55:21.515Z,14.80
2022-08-24T00:57:51.119Z,14.80
2022-08-24T01:00:21.218Z,14.90
2022-08-24T01:02:51.397Z,14.80
2022-08-24T01:05:19.205Z,14.80
2022-08-24T01:07:50.521Z,14.80
2022-08-24T01:10:24.988Z,14.80
2022-08-24T01:13:01.010Z,14.80
2022-08-24T01:15:35.162Z,14.70
2022-08-24T01:18:21.132Z,14.70
2022-08-24T01:20:54.630Z,14.70
2022-08-24T01:23:42.826Z,14.70
2022-08-24T01:26:12.466Z,14.60
2022-08-24T01:28:42.621Z,14.50
2022-08-24T01:31:10.091Z,14.50
2022-08-24T01:33:37.376Z,14.50
2022-08-24T01:36:15.483Z,14.40
2022-08-24T01:38:42.721Z,14.40
2022-08-24T01:41:10.485Z,14.40
2022-08-24T01:43:39.606Z,14.30
2022-08-24T01:46:08.033Z,14.30
2022-08-24T01:48:35.251Z,14.30
2022-08-24T01:51:02.460Z,14.20
2022-08-24T01:53:29.751Z,14.20
2022-08-24T01:55:56.958Z,14.20
2022-08-24T01:58:24.709Z,14.20
2022-08-24T02:00:51.920Z,14.10
2022-08-24T02:03:20.343Z,14.10
2022-08-24T02:05:55.998Z,14.10
2022-08-24T02:08:23.183Z,14.10
2022-08-24T02:10:56.634Z,14.10
2022-08-24T02:13:24.595Z,14.10
2022-08-24T02:15:51.954Z,14.10
2022-08-24T02:18:19.806Z,14.00
2022-08-24T02:20:47.019Z,14.00
2022-08-24T02:23:14.484Z,14.10
2022-08-24T02:25:42.310Z,14.00
2022-08-24T02:28:09.505Z,14.00
2022-08-24T02:30:36.678Z,14.00
2022-08-24T02:33:04.024Z,14.00
2022-08-24T02:35:31.593Z,14.00
2022-08-24T02:37:58.972Z,14.00
2022-08-24T02:40:27.695Z,14.00
2022-08-24T02:42:55.921Z,14.00
2022-08-24T02:45:23.839Z,14.00
2022-08-24T02:47:51.219Z,14.00
2022-08-24T02:50:19.629Z,14.00
2022-08-24T02:52:47.070Z,14.00
2022-08-24T02:55:20.027Z,14.00
2022-08-24T02:57:48.414Z,13.90
2022-08-24T03:00:19.992Z,13.90
2022-08-24T03:02:51.794Z,13.90
2022-08-24T03:05:19.808Z,13.90
2022-08-24T03:07:47.183Z,13.80
2022-08-24T03:10:14.392Z,13.80
2022-08-24T03:12:41.599Z,13.80
2022-08-24T03:15:10.488Z,13.80
2022-08-24T03:17:38.894Z,13.70
2022-08-24T03:20:10.239Z,13.70
2022-08-24T03:22:38.015Z,13.70
2022-08-24T03:25:06.114Z,13.70
2022-08-24T03:27:33.302Z,13.60
2022-08-24T03:30:01.201Z,13.60
2022-08-24T03:32:29.348Z,13.60
2022-08-24T03:34:56.563Z,13.60
2022-08-24T03:37:24.168Z,13.60
2022-08-24T03:39:51.457Z,13.50
2022-08-24T03:42:19.775Z,13.50
2022-08-24T03:44:46.954Z,13.50
2022-08-24T03:47:15.837Z,13.50
2022-08-24T03:49:43.086Z,13.50
2022-08-24T03:52:10.329Z,13.50
2022-08-24T03:54:37.599Z,13.50
2022-08-24T03:57:04.905Z,13.40
2022-08-24T03:59:32.644Z,13.40
2022-08-24T04:02:00.788Z,13.40
2022-08-24T04:04:29.412Z,13.40
2022-08-24T04:06:57.755Z,13.30
2022-08-24T04:09:27.341Z,13.30
2022-08-24T04:11:56.654Z,13.30
2022-08-24T04:14:27.357Z,13.30
2022-08-24T04:17:21.054Z,13.30
2022-08-24T04:19:58.131Z,13.30
2022-08-24T04:22:31.521Z,13.30
2022-08-24T04:24:58.738Z,13.30
2022-08-24T04:27:27.989Z,13.30
2022-08-24T04:29:56.944Z,13.30
2022-08-24T04:32:26.338Z,13.20
2022-08-24T04:34:56.218Z,13.30
2022-08-24T04:37:25.595Z,13.20
2022-08-24T04:39:56.532Z,13.20
2022-08-24T04:42:27.665Z,13.20
2022-08-24T04:44:55.563Z,13.20
2022-08-24T04:47:24.434Z,13.20
2022-08-24T04:49:51.778Z,13.10
2022-08-24T04:52:18.996Z,13.10
2022-08-24T04:54:46.899Z,13.10
2022-08-24T04:57:23.398Z,13.10
2022-08-24T04:59:55.998Z,13.20
2022-08-24T05:02:24.411Z,13.20
2022-08-24T05:04:55.255Z,13.20
2022-08-24T05:07:22.670Z,13.20
2022-08-24T05:09:52.531Z,13.20
2022-08-24T05:12:20.792Z,13.30
2022-08-24T05:14:56.131Z,13.30
2022-08-24T05:17:24.482Z,13.40
2022-08-24T05:19:51.667Z,13.40
2022-08-24T05:22:19.657Z,13.50
2022-08-24T05:24:50.965Z,13.60
2022-08-24T05:27:18.983Z,13.60
2022-08-24T05:29:47.022Z,13.70
2022-08-24T05:32:16.337Z,13.70
2022-08-24T05:34:44.453Z,13.80
2022-08-24T05:37:11.759Z,13.80
2022-08-24T05:39:52.838Z,13.90
2022-08-24T05:42:20.722Z,13.90
2022-08-24T05:44:49.214Z,14.00
2022-08-24T05:47:20.051Z,13.90
2022-08-24T05:49:51.386Z,14.00
2022-08-24T05:52:19.405Z,14.10
2022-08-24T05:54:54.572Z,14.10
2022-08-24T05:57:22.208Z,14.20
2022-08-24T06:00:11.408Z,14.20
2022-08-24T06:02:43.659Z,14.30
2022-08-24T06:05:10.994Z,14.30
2022-08-24T06:07:38.175Z,14.40
2022-08-24T06:10:32.897Z,14.40
2022-08-24T06:12:53.561Z,14.50
2022-08-24T06:15:21.987Z,14.60
2022-08-24T06:17:50.293Z,14.60
2022-08-24T06:20:17.945Z,14.70
2022-08-24T06:22:45.831Z,14.80
2022-08-24T06:25:31.584Z,14.90
2022-08-24T06:27:59.454Z,15.10
2022-08-24T06:30:30.126Z,15.20
2022-08-24T06:33:05.478Z,15.40
2022-08-24T06:35:46.779Z,15.50
2022-08-24T06:38:14.745Z,15.70
2022-08-24T06:40:42.844Z,15.80
2022-08-24T06:43:11.008Z,15.90
2022-08-24T06:45:48.570Z,16.00
2022-08-24T06:48:19.281Z,16.20
2022-08-24T06:50:47.369Z,16.30
2022-08-24T06:53:15.098Z,16.30
2022-08-24T06:55:46.634Z,16.30
2022-08-24T06:58:13.844Z,16.30
2022-08-24T07:00:41.409Z,16.30
2022-08-24T07:03:08.654Z,16.30
2022-08-24T07:05:39.682Z,16.40
2022-08-24T07:08:19.164Z,16.50
2022-08-24T07:10:46.418Z,16.60
2022-08-24T07:13:14.639Z,16.70
2022-08-24T07:15:42.641Z,16.90
2022-08-24T07:18:16.301Z,17.00
2022-08-24T07:20:47.410Z,17.10
2022-08-24T07:23:42.464Z,17.30
2022-08-24T07:26:21.121Z,17.50
2022-08-24T07:28:54.381Z,17.70
2022-08-24T07:31:22.740Z,17.80
2022-08-24T07:34:13.162Z,18.00
2022-08-24T07:36:44.242Z,18.20
2022-08-24T07:39:11.999Z,18.30
2022-08-24T07:42:08.724Z,18.40
2022-08-24T07:44:31.719Z,18.50
2022-08-24T07:47:15.158Z,18.60
2022-08-24T07:49:46.582Z,18.80
2022-08-24T07:52:13.856Z,18.90
2022-08-24T07:54:41.097Z,19.00
2022-08-24T07:57:08.672Z,19.10
2022-08-24T07:59:38.806Z,19.20
2022-08-24T08:02:08.137Z,19.30
2022-08-24T08:04:35.846Z,19.40
2022-08-24T08:07:03.086Z,19.50
2022-08-24T08:09:42.679Z,19.50
2022-08-24T08:12:12.362Z,19.60
2022-08-24T08:14:51.349Z,19.70
2022-08-24T08:17:18.557Z,19.70
2022-08-24T08:19:46.082Z,19.80
2022-08-24T08:22:31.671Z,19.90
2022-08-24T08:25:31.756Z,20.00
2022-08-24T08:28:08.116Z,19.90
2022-08-24T08:30:53.814Z,20.00
2022-08-24T08:33:21.254Z,20.10
2022-08-24T08:35:48.669Z,20.20
2022-08-24T08:38:16.534Z,20.20
2022-08-24T08:41:18.155Z,20.20
2022-08-24T08:44:37.873Z,20.20
2022-08-24T08:47:33.539Z,20.30
2022-08-24T08:50:25.804Z,20.40
2022-08-24T08:53:05.306Z,20.60
2022-08-24T08:55:42.646Z,20.70
2022-08-24T08:58:24.526Z,20.80
2022-08-24T09:01:01.384Z,20.80
2022-08-24T09:03:41.215Z,20.90
2022-08-24T09:06:59.613Z,20.80
2022-08-24T09:09:40.868Z,20.80
2022-08-24T09:12:17.569Z,21.00
2022-08-24T09:15:23.286Z,21.10
2022-08-24T09:17:53.602Z,21.10
2022-08-24T09:20:42.317Z,21.20
2022-08-24T09:23:33.467Z,21.30
2022-08-24T09:26:10.784Z,21.40
2022-08-24T09:28:37.950Z,21.40
2022-08-24T09:31:27.391Z,21.50
2022-08-24T09:34:03.627Z,21.50
2022-08-24T09:37:09.442Z,21.50
2022-08-24T09:39:38.328Z,21.60
2022-08-24T09:42:19.983Z,21.60
2022-08-24T09:44:54.473Z,21.60
2022-08-24T09:48:19.163Z,21.70
2022-08-24T09:51:06.806Z,21.70
2022-08-24T09:53:56.631Z,21.80
2022-08-24T09:57:12.630Z,21.90
2022-08-24T09:59:56.050Z,21.90
2022-08-24T10:02:42.803Z,22.00
2022-08-24T10:05:23.700Z,22.10
2022-08-24T10:07:58.204Z,22.10
2022-08-24T10:10:47.294Z,22.20
2022-08-24T10:13:20.760Z,22.10
2022-08-24T10:16:22.356Z,22.10
2022-08-24T10:19:15.266Z,22.00
2022-08-24T10:21:55.016Z,22.20
2022-08-24T10:24:47.647Z,22.30
2022-08-24T10:27:29.367Z,22.30
2022-08-24T10:30:28.048Z,22.30
2022-08-24T10:33:18.496Z,22.30
2022-08-24T10:36:07.505Z,22.30
2022-08-24T10:39:29.329Z,22.30
2022-08-24T10:42:05.703Z,22.40
2022-08-24T10:44:46.954Z,22.50
2022-08-24T10:47:28.240Z,22.60
2022-08-24T10:50:18.314Z,22.60
2022-08-24T10:53:10.302Z,22.60
2022-08-24T10:55:37.938Z,22.60
2022-08-24T10:58:34.253Z,22.60
2022-08-24T11:01:26.626Z,22.70
2022-08-24T11:03:58.619Z,22.80
2022-08-24T11:06:28.694Z,23.00
2022-08-24T11:09:03.969Z,23.10
2022-08-24T11:11:41.885Z,23.20
2022-08-24T11:14:29.496Z,23.20
2022-08-24T11:17:17.297Z,23.30
2022-08-24T11:19:44.583Z,23.20
2022-08-24T11:22:36.702Z,23.30
2022-08-24T11:25:22.380Z,23.40
2022-08-24T11:27:51.402Z,23.30
2022-08-24T11:30:18.792Z,23.40
2022-08-24T11:32:57.560Z,23.40
2022-08-24T11:35:33.981Z,23.40
2022-08-24T11:38:04.305Z,23.50
2022-08-24T11:40:34.273Z,23.50
2022-08-24T11:43:32.090Z,23.50
2022-08-24T11:46:05.107Z,23.60
2022-08-24T11:48:56.714Z,23.70
2022-08-24T11:51:33.050Z,23.70
2022-08-24T11:54:32.878Z,23.90
2022-08-24T11:57:11.035Z,24.00
2022-08-24T11:59:45.451Z,24.00
2022-08-24T12:02:18.588Z,24.00
2022-08-24T12:05:08.711Z,24.00
2022-08-24T12:08:04.631Z,24.10
2022-08-24T12:11:01.566Z,24.00
2022-08-24T12:14:04.729Z,24.10
2022-08-24T12:17:02.721Z,24.10
2022-08-24T12:19:37.648Z,24.10
2022-08-24T12:22:06.385Z,24.20
2022-08-24T12:24:51.381Z,24.20
2022-08-24T12:27:29.652Z,24.20
2022-08-24T12:30:12.679Z,24.30
2022-08-24T12:32:40.774Z,24.40
2022-08-24T12:35:32.572Z,24.40
2022-08-24T12:38:18.552Z,24.20
2022-08-24T12:40:58.449Z,23.90
2022-08-24T12:43:38.594Z,23.90
2022-08-24T12:46:06.809Z,23.80
2022-08-24T12:48:45.545Z,23.70
2022-08-24T12:51:34.912Z,23.60
2022-08-24T12:54:37.596Z,23.40
2022-08-24T13:00:32.068Z,23.70
2022-08-24T13:03:01.822Z,23.90
2022-08-24T13:05:42.611Z,24.00
2022-08-24T13:08:12.206Z,24.10
2022-08-24T13:10:44.734Z,24.20
2022-08-24T13:13:16.590Z,24.20
2022-08-24T13:15:56.338Z,24.10
2022-08-24T13:19:27.646Z,23.90
2022-08-24T13:22:09.923Z,23.90
2022-08-24T13:25:02.620Z,24.00
2022-08-24T13:27:36.022Z,24.00
2022-08-24T13:30:08.521Z,24.10
2022-08-24T13:32:38.435Z,24.20
2022-08-24T13:35:39.670Z,24.30
2022-08-24T13:38:26.093Z,24.40
2022-08-24T13:41:17.277Z,24.50
2022-08-24T13:43:44.669Z,24.40
2022-08-24T13:46:29.900Z,24.40
2022-08-24T13:49:38.601Z,24.40
2022-08-24T13:52:31.488Z,24.50
2022-08-24T13:55:26.694Z,24.60
2022-08-24T13:58:18.101Z,24.70
2022-08-24T14:01:11.430Z,24.70
2022-08-24T14:03:44.996Z,24.60
2022-08-24T14:06:20.619Z,24.70
2022-08-24T14:09:11.597Z,24.60
2022-08-24T14:11:48.068Z,24.80
2022-08-24T14:14:21.947Z,24.70
2022-08-24T14:17:16.260Z,24.60
2022-08-24T14:20:06.288Z,24.30
2022-08-24T14:22:58.174Z,24.10
2022-08-24T14:25:27.960Z,24.10
2022-08-24T14:27:55.152Z,24.10
2022-08-24T14:30:24.992Z,24.20
2022-08-24T14:33:01.573Z,24.20
2022-08-24T14:35:29.331Z,24.30
2022-08-24T14:38:04.102Z,24.30
2022-08-24T14:40:52.683Z,24.30
2022-08-24T14:43:34.811Z,24.20
2022-08-24T14:46:08.199Z,24.20
2022-08-24T14:49:00.517Z,24.00
2022-08-24T14:51:35.831Z,23.90
2022-08-24T14:54:15.556Z,23.90
2022-08-24T14:56:54.296Z,23.90
2022-08-24T14:59:55.016Z,24.00
2022-08-24T15:02:42.094Z,24.00
2022-08-24T15:05:22.103Z,24.10
2022-08-24T15:08:09.450Z,24.10
2022-08-24T15:10:57.358Z,24.10
2022-08-24T15:13:32.624Z,24.20
2022-08-24T15:16:12.988Z,24.10
2022-08-24T15:18:53.631Z,24.00
2022-08-24T15:21:29.181Z,24.00
2022-08-24T15:24:22.356Z,23.90
2022-08-24T15:27:10.291Z,23.80
2022-08-24T15:29:47.972Z,23.80
2022-08-24T15:32:16.009Z,23.70
2022-08-24T15:34:48.993Z,23.70
2022-08-24T15:37:25.279Z,23.70
2022-08-24T15:39:52.531Z,23.70
2022-08-24T15:42:19.838Z,23.70
2022-08-24T15:44:47.614Z,23.70
2022-08-24T15:47:35.554Z,23.70
2022-08-24T15:50:22.358Z,23.70
2022-08-24T15:52:52.840Z,23.70
2022-08-24T15:55:35.173Z,23.70
2022-08-24T15:58:34.272Z,23.60
2022-08-24T16:01:29.476Z,23.50
2022-08-24T16:03:58.447Z,23.40
2022-08-24T16:06:33.029Z,23.30
2022-08-24T16:09:09.641Z,23.30
2022-08-24T16:12:14.037Z,23.30
2022-08-24T16:14:47.613Z,23.30
2022-08-24T16:17:35.322Z,23.30
2022-08-24T16:20:07.874Z,23.30
2022-08-24T16:22:39.153Z,23.30
2022-08-24T16:25:24.600Z,23.20
2022-08-24T16:28:05.354Z,23.20
2022-08-24T16:30:53.227Z,23.20
2022-08-24T16:33:36.694Z,23.20
2022-08-24T16:36:11.072Z,23.20
2022-08-24T16:38:41.655Z,23.20
2022-08-24T16:41:11.046Z,23.10
2022-08-24T16:43:39.640Z,23.20
2022-08-24T16:46:08.068Z,23.10
2022-08-24T16:48:35.306Z,23.10
2022-08-24T16:51:03.111Z,23.10
2022-08-24T16:53:30.737Z,23.10
2022-08-24T16:55:58.387Z,23.00
2022-08-24T16:58:29.809Z,23.00
2022-08-24T17:00:57.325Z,22.90
2022-08-24T17:03:24.679Z,22.90
2022-08-24T17:05:51.922Z,22.90
2022-08-24T17:08:19.143Z,22.90
2022-08-24T17:10:46.741Z,22.90
2022-08-24T17:13:27.642Z,22.90
2022-08-24T17:16:01.783Z,22.90
2022-08-24T17:18:28.953Z,22.90
2022-08-24T17:21:01.195Z,22.80
2022-08-24T17:23:28.435Z,22.80
2022-08-24T17:25:55.639Z,22.70
2022-08-24T17:28:23.570Z,22.70
2022-08-24T17:30:51.580Z,22.60
2022-08-24T17:33:19.088Z,22.60
2022-08-24T17:35:46.258Z,22.60
2022-08-24T17:38:13.438Z,22.60
2022-08-24T17:40:40.627Z,22.60
2022-08-24T17:43:08.008Z,22.50
2022-08-24T17:45:35.331Z,22.50
2022-08-24T17:48:02.747Z,22.40
2022-08-24T17:50:30.228Z,22.40
2022-08-24T17:53:00.340Z,22.40
2022-08-24T17:55:28.085Z,22.30
2022-08-24T17:57:55.406Z,22.30
2022-08-24T18:00:22.630Z,22.30
2022-08-24T18:02:49.822Z,22.20
2022-08-24T18:05:17.798Z,22.10
2022-08-24T18:07:53.507Z,22.10
2022-08-24T18:10:27.727Z,22.10
2022-08-24T18:12:55.976Z,22.00
2022-08-24T18:15:35.772Z,22.00
2022-08-24T18:18:08.646Z,22.00
2022-08-24T18:20:38.403Z,21.90
2022-08-24T18:23:05.986Z,21.90
2022-08-24T18:25:44.608Z,21.80
2022-08-24T18:28:11.796Z,21.80
2022-08-24T18:30:40.816Z,21.80
2022-08-24T18:33:08.690Z,21.70
2022-08-24T18:35:36.273Z,21.70
2022-08-24T18:38:04.370Z,21.70
2022-08-24T18:40:33.503Z,21.60
2022-08-24T18:43:02.039Z,21.60
2022-08-24T18:45:30.588Z,21.50
2022-08-24T18:47:58.543Z,21.50
2022-08-24T18:50:28.716Z,21.40
2022-08-24T18:52:57.279Z,21.40
2022-08-24T18:55:24.859Z,21.30
2022-08-24T18:57:52.214Z,21.30
2022-08-24T19:00:19.584Z,21.30
2022-08-24T19:02:47.371Z,21.20
2022-08-24T19:05:24.450Z,21.20
2022-08-24T19:07:52.558Z,21.20
2022-08-24T19:10:21.541Z,21.20
2022-08-24T19:12:50.143Z,21.10
2022-08-24T19:15:32.028Z,21.10
2022-08-24T19:18:05.427Z,21.10
2022-08-24T19:20:34.009Z,21.00
2022-08-24T19:23:09.240Z,21.00
2022-08-24T19:25:36.834Z,21.00
2022-08-24T19:28:04.737Z,21.00
2022-08-24T19:30:31.898Z,21.00
2022-08-24T19:32:59.224Z,20.90
2022-08-24T19:35:26.494Z,20.90
2022-08-24T19:37:53.701Z,20.90
2022-08-24T19:40:21.035Z,20.80
2022-08-24T19:42:50.678Z,20.80
2022-08-24T19:45:38.785Z,20.80
2022-08-24T19:48:06.032Z,20.80
2022-08-24T19:50:35.830Z,20.80
2022-08-24T19:53:04.847Z,20.70
2022-08-24T19:55:32.650Z,20.70
2022-08-24T19:58:23.680Z,20.70
2022-08-24T20:00:56.743Z,20.70
2022-08-24T20:03:24.411Z,20.60
2022-08-24T20:05:51.627Z,20.60
2022-08-24T20:08:19.903Z,20.60
2022-08-24T20:10:47.369Z,20.60
2022-08-24T20:13:14.586Z,20.50
2022-08-24T20:15:42.282Z,20.50
2022-08-24T20:18:09.451Z,20.50
2022-08-24T20:20:36.674Z,20.50
2022-08-24T20:23:06.116Z,20.40
2022-08-24T20:25:35.677Z,20.40
2022-08-24T20:28:27.589Z,20.40
2022-08-24T20:30:51.949Z,20.40
2022-08-24T20:33:21.035Z,20.30
2022-08-24T20:35:48.230Z,20.30
2022-08-24T20:38:16.565Z,20.30
2022-08-24T20:40:44.398Z,20.30
2022-08-24T20:43:12.745Z,20.20
2022-08-24T20:45:41.184Z,20.20
2022-08-24T20:48:11.687Z,20.20
2022-08-24T20:50:39.065Z,20.20
2022-08-24T20:53:09.042Z,20.20
2022-08-24T20:55:36.764Z,20.10
2022-08-24T20:58:03.945Z,20.10
2022-08-24T21:00:31.330Z,20.10
2022-08-24T21:02:58.609Z,20.00
2022-08-24T21:05:25.800Z,20.00
2022-08-24T21:07:55.348Z,20.00
2022-08-24T21:10:24.950Z,19.90
2022-08-24T21:12:54.306Z,19.90
2022-08-24T21:15:23.090Z,20.00
2022-08-24T21:17:50.318Z,19.90
2022-08-24T21:20:17.882Z,19.90
2022-08-24T21:22:46.068Z,19.90
2022-08-24T21:25:14.303Z,19.80
2022-08-24T21:27:43.877Z,19.80
2022-08-24T21:30:13.592Z,19.70
2022-08-24T21:32:59.254Z,19.70
2022-08-24T21:35:26.665Z,19.70
2022-08-24T21:37:53.958Z,19.70
2022-08-24T21:40:21.751Z,19.70
2022-08-24T21:42:49.272Z,19.60
2022-08-24T21:45:16.843Z,19.60
2022-08-24T21:47:44.681Z,19.50
2022-08-24T21:50:12.110Z,19.50
2022-08-24T21:52:41.368Z,19.40
2022-08-24T21:55:14.190Z,19.40
2022-08-24T21:57:42.130Z,19.30
2022-08-24T22:00:13.475Z,19.30
2022-08-24T22:02:40.871Z,19.30
2022-08-24T22:05:09.072Z,19.30
2022-08-24T22:07:36.653Z,19.20
2022-08-24T22:10:05.043Z,19.20
2022-08-24T22:12:32.220Z,19.20
2022-08-24T22:14:59.375Z,19.20
2022-08-24T22:17:26.535Z,19.10
2022-08-24T22:19:53.825Z,19.10
2022-08-24T22:22:21.006Z,19.10
2022-08-24T22:24:48.175Z,19.10
2022-08-24T22:27:15.353Z,19.00
2022-08-24T22:29:43.289Z,19.00
2022-08-24T22:32:10.676Z,19.00
2022-08-24T22:34:37.965Z,19.00
2022-08-24T22:37:05.576Z,19.00
2022-08-24T22:39:32.743Z,18.90
2022-08-24T22:41:59.915Z,18.90
2022-08-24T22:44:27.699Z,18.90
2022-08-24T22:46:57.105Z,18.90
2022-08-24T22:49:28.176Z,18.90
2022-08-24T22:51:55.548Z,18.80
2022-08-24T22:54:23.197Z,18.80
2022-08-24T22:56:52.494Z,18.80
2022-08-24T22:59:22.482Z,18.80
2022-08-24T23:01:50.882Z,18.80
2022-08-24T23:04:20.886Z,18.80
2022-08-24T23:06:48.121Z,18.70
2022-08-24T23:09:15.384Z,18.70
2022-08-24T23:11:42.655Z,18.70
2022-08-24T23:14:10.349Z,18.60
2022-08-24T23:16:38.889Z,18.60
2022-08-24T23:19:25.085Z,18.60
2022-08-24T23:21:52.823Z,18.50
2022-08-24T23:24:20.155Z,18.50
2022-08-24T23:26:47.314Z,18.50
2022-08-24T23:29:15.154Z,18.50
2022-08-24T23:31:42.947Z,18.50
2022-08-24T23:34:10.323Z,18.40
2022-08-24T23:36:37.706Z,18.40
2022-08-24T23:39:05.634Z,18.40
2022-08-24T23:41:33.678Z,18.30
2022-08-24T23:44:01.989Z,18.30
2022-08-24T23:46:29.390Z,18.30
2022-08-24T23:48:57.934Z,18.30
2022-08-24T23:51:27.815Z,18.20
2022-08-24T23:53:56.895Z,18.20
2022-08-24T23:56:26.114Z,18.20
2022-08-24T23:58:54.083Z,18.20
